Terminal Aerodrome Forecast
Issued by NWS Cleveland, OH

Home | Current Version | Previous Version | Text Only | Print | Product List | Glossary On
Versions: 1 2 3 4 5 6 7 8 9 10 11 12 13 14 15 16 17 18 19 20 21 22 23 24 25
000
FTUS41 KCLE 202323
TAFCLE
TAF
KCLE 202323Z 2100/2206 02006KT P6SM SCT045
     FM210200 14004KT P6SM SCT250
     FM210900 00000KT 6SM BR SCT250
      TEMPO 2109/2113 5SM BR
     FM211600 36006KT P6SM SCT060
     FM220300 00000KT P6SM SCT250=

USA.gov is the U.S. government's official web portal to all federal, state and local government web resources and services.